Time;durP1;ratioP1;P1;durP2;ratioP2;P2;SDS_P1;SDS_P2;PMS_P1;PMS_P2;Temp;Humidity;BMP_temperature;BMP_pressure;BME280_temperature;BME280_humidity;BME280_pressure;Samples;Min_cycle;Max_cycle;Signal;HPM_P1;HPM_P2
2024/01/13 00:01:02;;;;;;;30.40;17.08;;;;;;;-2.20;56.72;95025.75;4206093;28;20452;-67
2024/01/13 00:03:04;;;;;;;29.73;17.15;;;;;;;-2.24;56.83;95029.38;4207215;28;20048;-67
2024/01/13 00:05:06;;;;;;;27.42;17.17;;;;;;;-2.30;56.44;95029.69;4194257;28;20259;-69
2024/01/13 00:07:08;;;;;;;27.30;16.38;;;;;;;-2.30;56.41;95032.28;4195849;28;20044;-66
2024/01/13 00:09:10;;;;;;;26.48;16.75;;;;;;;-2.45;56.56;95021.00;4200315;28;20048;-66
2024/01/13 00:11:12;;;;;;;27.10;15.88;;;;;;;-2.47;56.71;95017.66;4202262;28;20097;-66
2024/01/13 00:13:15;;;;;;;26.67;16.23;;;;;;;-2.47;56.38;95015.94;4203135;28;20052;-65
2024/01/13 00:15:18;;;;;;;26.15;15.52;;;;;;;-2.48;56.41;95005.72;4202206;28;20224;-65
2024/01/13 00:17:22;;;;;;;25.08;15.13;;;;;;;-2.64;56.25;95018.47;4200348;28;20113;-65
2024/01/13 00:19:24;;;;;;;27.52;15.55;;;;;;;-2.65;56.33;95010.81;4207762;28;20051;-64
2024/01/13 00:21:26;;;;;;;25.52;15.77;;;;;;;-2.63;56.47;95009.84;4194651;28;20625;-65
2024/01/13 00:23:28;;;;;;;25.80;15.32;;;;;;;-2.50;56.15;95013.50;4205001;28;20044;-65
2024/01/13 00:25:30;;;;;;;25.13;15.73;;;;;;;-2.45;55.83;95007.31;4193300;28;20095;-65
2024/01/13 00:27:32;;;;;;;29.38;16.15;;;;;;;-2.47;56.08;95008.22;4181238;28;20438;-68
2024/01/13 00:29:33;;;;;;;22.45;14.95;;;;;;;-2.37;55.40;95011.19;4199520;28;20083;-68
2024/01/13 00:31:35;;;;;;;26.05;15.52;;;;;;;-2.32;55.79;95010.97;4200997;28;20160;-67
2024/01/13 00:33:39;;;;;;;26.35;15.70;;;;;;;-2.31;55.41;95016.03;4199944;28;20084;-66
2024/01/13 00:35:41;;;;;;;29.05;16.70;;;;;;;-2.40;55.26;95010.50;4200644;28;20496;-65
2024/01/13 00:37:44;;;;;;;24.73;15.75;;;;;;;-2.40;55.51;95011.34;4194568;28;20082;-67
2024/01/13 00:39:46;;;;;;;25.20;14.85;;;;;;;-2.52;55.58;95007.63;4192587;28;20076;-66
2024/01/13 00:41:48;;;;;;;25.27;14.85;;;;;;;-2.52;56.50;95009.34;4202058;28;20133;-67
2024/01/13 00:43:50;;;;;;;26.83;16.05;;;;;;;-2.55;56.22;95006.94;4208154;28;20047;-68
2024/01/13 00:45:52;;;;;;;25.80;16.45;;;;;;;-2.50;56.46;95000.66;4201472;28;20052;-67
2024/01/13 00:47:53;;;;;;;27.00;16.58;;;;;;;-2.49;56.14;95004.09;4193060;28;20052;-66
2024/01/13 00:49:55;;;;;;;29.05;16.42;;;;;;;-2.41;56.73;95004.56;4203374;28;20463;-68
2024/01/13 00:51:58;;;;;;;25.98;15.00;;;;;;;-2.41;56.09;95003.69;4200783;28;20126;-66
2024/01/13 00:54:00;;;;;;;28.52;16.17;;;;;;;-2.50;56.04;94997.28;4194414;28;20060;-65
2024/01/13 00:56:02;;;;;;;28.02;16.40;;;;;;;-2.42;56.56;94990.06;4208661;28;20138;-66
2024/01/13 00:58:04;;;;;;;29.63;16.42;;;;;;;-2.41;56.29;94988.31;4199575;28;20054;-65
2024/01/13 01:00:07;;;;;;;27.35;15.68;;;;;;;-2.37;56.29;94994.97;4207706;28;20048;-67
2024/01/13 01:02:09;;;;;;;29.20;17.17;;;;;;;-2.22;56.43;94999.34;4197869;28;20131;-65
2024/01/13 01:04:11;;;;;;;27.90;16.75;;;;;;;-2.27;55.81;94996.19;4201042;28;20418;-66
2024/01/13 01:06:13;;;;;;;25.20;15.48;;;;;;;-2.27;56.03;94993.63;4195577;28;20198;-66
2024/01/13 01:08:15;;;;;;;28.80;16.08;;;;;;;-2.20;56.20;94992.41;4206303;28;20458;-69
2024/01/13 01:10:27;;;;;;;27.30;16.00;;;;;;;-2.26;55.82;94997.81;4196222;28;20678;-67
2024/01/13 01:12:29;;;;;;;28.17;16.45;;;;;;;-2.36;56.19;94994.06;4206976;28;20097;-66
2024/01/13 01:14:31;;;;;;;31.45;17.90;;;;;;;-2.36;56.50;94987.19;4198092;28;20186;-66
2024/01/13 01:16:33;;;;;;;27.70;16.90;;;;;;;-2.28;55.96;94991.94;4196388;28;20046;-66
2024/01/13 01:18:35;;;;;;;28.73;17.15;;;;;;;-2.36;55.93;94984.63;4200875;28;20121;-66
2024/01/13 01:20:47;;;;;;;27.98;16.38;;;;;;;-2.32;56.51;94978.44;4207906;28;20058;-65
2024/01/13 01:22:49;;;;;;;29.30;17.23;;;;;;;-2.13;56.29;94982.66;4208140;28;20135;-67
2024/01/13 01:24:51;;;;;;;27.40;15.95;;;;;;;-2.12;55.87;94974.91;4194183;28;20199;-66
2024/01/13 01:26:52;;;;;;;27.50;16.50;;;;;;;-2.09;56.08;94979.91;4197264;28;20402;-67
2024/01/13 01:28:54;;;;;;;31.48;17.85;;;;;;;-2.17;56.10;94966.59;4200920;28;20143;-65
2024/01/13 01:30:56;;;;;;;31.40;17.23;;;;;;;-2.19;56.01;94970.97;4199789;28;20070;-67
2024/01/13 01:32:58;;;;;;;30.85;18.35;;;;;;;-2.23;56.21;94964.34;4200207;28;20060;-67
2024/01/13 01:35:00;;;;;;;27.92;17.67;;;;;;;-2.15;56.71;94969.06;4194363;28;20060;-68
2024/01/13 01:37:02;;;;;;;27.50;17.55;;;;;;;-2.14;56.12;94963.03;4204848;28;20079;-67
2024/01/13 01:39:04;;;;;;;30.00;17.90;;;;;;;-2.16;56.46;94962.28;4197319;28;20148;-68
2024/01/13 01:41:07;;;;;;;31.10;18.88;;;;;;;-2.42;56.69;94966.13;4209088;28;20048;-66
2024/01/13 01:43:10;;;;;;;32.00;18.55;;;;;;;-2.53;57.00;94964.91;4194978;28;20475;-67
2024/01/13 01:45:12;;;;;;;30.98;18.13;;;;;;;-2.47;57.66;94959.50;4201052;28;20083;-66
2024/01/13 01:47:15;;;;;;;28.63;18.20;;;;;;;-2.53;57.29;94962.34;4206913;28;20418;-66
2024/01/13 01:49:17;;;;;;;31.48;17.92;;;;;;;-2.39;57.34;94963.41;4202768;28;20048;-67
2024/01/13 01:51:19;;;;;;;32.15;18.80;;;;;;;-2.45;57.35;94964.56;4195278;28;20080;-67
2024/01/13 01:53:21;;;;;;;29.70;18.23;;;;;;;-2.34;57.80;94972.56;4195731;28;20419;-65
2024/01/13 01:55:23;;;;;;;30.58;19.13;;;;;;;-2.25;57.26;94973.84;4194401;28;20058;-67
2024/01/13 01:57:27;;;;;;;31.77;18.45;;;;;;;-2.21;57.31;94972.78;4201837;28;20129;-66
2024/01/13 01:59:31;;;;;;;32.38;18.00;;;;;;;-2.13;57.06;94973.25;4192103;28;20102;-66
2024/01/13 02:01:33;;;;;;;30.02;18.17;;;;;;;-2.17;56.93;94983.72;4199499;28;20488;-67
2024/01/13 02:03:35;;;;;;;31.58;19.08;;;;;;;-2.25;57.55;94994.38;4202189;28;20086;-68
2024/01/13 02:05:37;;;;;;;29.73;18.17;;;;;;;-2.23;57.42;94976.34;4202106;28;20120;-66
2024/01/13 02:07:40;;;;;;;31.63;18.23;;;;;;;-2.30;57.39;94975.81;4198427;28;20048;-66
2024/01/13 02:09:42;;;;;;;34.00;19.90;;;;;;;-2.24;57.60;94969.53;4205355;28;20311;-67
2024/01/13 02:11:45;;;;;;;31.10;19.45;;;;;;;-2.24;57.53;94967.78;4206557;28;20137;-67
2024/01/13 02:13:49;;;;;;;33.20;18.75;;;;;;;-2.19;57.45;94970.97;4200387;28;20079;-64
2024/01/13 02:15:51;;;;;;;32.20;19.10;;;;;;;-2.22;57.64;94973.69;4193800;28;20064;-66
2024/01/13 02:17:52;;;;;;;30.65;18.90;;;;;;;-2.52;58.55;94976.84;4205942;28;20420;-67
2024/01/13 02:19:54;;;;;;;36.17;19.30;;;;;;;-2.55;58.76;94971.84;4204517;28;20044;-65
2024/01/13 02:21:56;;;;;;;31.65;19.33;;;;;;;-2.60;59.38;94966.13;4203899;28;20040;-65
2024/01/13 02:23:58;;;;;;;32.42;19.08;;;;;;;-2.88;59.04;94971.72;4196244;28;20044;-66
2024/01/13 02:26:00;;;;;;;33.13;19.90;;;;;;;-2.72;59.66;94951.31;4198833;28;20074;-66
2024/01/13 02:28:03;;;;;;;30.88;19.35;;;;;;;-2.54;59.02;94955.56;4194929;28;20048;-66
2024/01/13 02:30:05;;;;;;;34.25;18.98;;;;;;;-2.51;59.18;94949.47;4207010;28;20044;-66
2024/01/13 02:32:07;;;;;;;33.17;19.65;;;;;;;-2.43;59.06;94946.50;4202416;28;20098;-66
2024/01/13 02:34:08;;;;;;;32.08;19.38;;;;;;;-2.30;58.82;94942.47;4205327;28;20051;-67
2024/01/13 02:36:11;;;;;;;34.03;20.15;;;;;;;-2.34;58.65;94946.06;4195561;28;20533;-66
2024/01/13 02:38:13;;;;;;;36.72;20.90;;;;;;;-2.41;58.69;94949.81;4207471;28;20259;-65
2024/01/13 02:40:26;;;;;;;30.45;18.02;;;;;;;-2.30;58.69;94955.28;4194665;28;20048;-67
2024/01/13 02:42:28;;;;;;;30.73;18.98;;;;;;;-2.28;58.52;94946.59;4196849;28;20066;-68
2024/01/13 02:44:29;;;;;;;35.05;19.63;;;;;;;-2.15;58.07;94934.00;4207077;28;20054;-67
2024/01/13 02:46:31;;;;;;;33.70;19.67;;;;;;;-2.08;57.67;94937.06;4204790;28;20504;-67
2024/01/13 02:48:56;;;;;;;32.58;19.67;;;;;;;-2.03;57.90;94942.78;4204527;28;20045;-67
2024/01/13 02:51:00;;;;;;;36.58;19.85;;;;;;;-2.01;57.40;94940.16;4200415;28;20048;-65
2024/01/13 02:53:02;;;;;;;;;;;;;;;-2.10;57.75;94941.47;4206532;28;20438;-66
2024/01/13 02:55:04;;;;;;;32.67;19.95;;;;;;;-2.08;57.58;94945.59;4197304;28;19947;-67
2024/01/13 02:57:10;;;;;;;30.48;19.85;;;;;;;-2.10;58.28;94944.03;4209441;28;20578;-68
2024/01/13 02:59:13;;;;;;;31.73;19.30;;;;;;;-2.13;57.67;94942.44;4198879;28;20032;-67
2024/01/13 03:01:16;;;;;;;34.78;21.00;;;;;;;-2.04;58.00;94946.28;4196722;28;20115;-67
2024/01/13 03:03:21;;;;;;;33.70;20.27;;;;;;;-2.02;57.71;94949.59;4206767;28;20142;-67
2024/01/13 03:05:24;;;;;;;32.03;19.70;;;;;;;-1.97;57.25;94949.38;4201475;28;20105;-67
2024/01/13 03:07:26;;;;;;;33.88;20.67;;;;;;;-1.94;57.65;94951.78;4195726;28;20463;-69
2024/01/13 03:09:28;;;;;;;33.17;20.65;;;;;;;-2.04;57.33;94956.56;4206554;28;20040;-67
2024/01/13 03:11:30;;;;;;;33.30;19.65;;;;;;;-2.15;57.94;94967.34;4194864;28;20044;-66
2024/01/13 03:13:32;;;;;;;32.13;19.60;;;;;;;-2.38;58.49;94976.16;4208582;28;20109;-66
2024/01/13 03:15:34;;;;;;;35.80;20.48;;;;;;;-3.15;61.32;94973.81;4211224;28;20059;-64
2024/01/13 03:17:36;;;;;;;36.42;21.65;;;;;;;-3.03;61.69;94982.66;4206750;28;20047;-65
2024/01/13 03:19:38;;;;;;;37.30;21.45;;;;;;;-2.83;61.78;94976.63;4204129;28;20060;-66
2024/01/13 03:21:41;;;;;;;39.95;21.90;;;;;;;-2.64;60.86;94966.34;4210114;28;20048;-67
2024/01/13 03:23:43;;;;;;;35.28;21.52;;;;;;;-2.56;60.52;94974.47;4206570;28;20747;-66
2024/01/13 03:25:46;;;;;;;37.53;22.70;;;;;;;-2.47;60.05;94980.00;4199490;28;20045;-67
2024/01/13 03:27:48;;;;;;;36.28;21.98;;;;;;;-2.59;60.09;94979.78;4198379;28;20500;-67
2024/01/13 03:29:49;;;;;;;36.15;21.35;;;;;;;-2.56;60.21;94983.03;4196172;28;20155;-66
2024/01/13 03:31:51;;;;;;;35.88;21.50;;;;;;;-2.56;60.37;94979.59;4195414;28;20440;-67
2024/01/13 03:33:53;;;;;;;36.33;21.95;;;;;;;-2.47;60.11;94980.00;4207068;28;20120;-68
2024/01/13 03:35:55;;;;;;;33.60;21.08;;;;;;;-2.40;59.48;94988.25;4200773;28;20060;-67
2024/01/13 03:37:57;;;;;;;38.35;21.80;;;;;;;-2.80;60.23;94982.44;4202150;28;20477;-66
2024/01/13 03:39:59;;;;;;;35.42;21.27;;;;;;;-3.05;61.25;94982.75;4207424;28;20052;-66
2024/01/13 03:42:01;;;;;;;37.92;21.70;;;;;;;-3.23;62.25;94981.00;4202890;28;20114;-66
2024/01/13 03:44:03;;;;;;;37.63;22.10;;;;;;;-3.07;61.88;94971.75;4195121;28;20063;-65
2024/01/13 03:46:06;;;;;;;32.92;20.60;;;;;;;-3.02;61.57;94979.22;4205349;28;20048;-65
2024/01/13 03:48:08;;;;;;;34.38;19.50;;;;;;;-2.94;60.29;94970.25;4195960;28;20064;-67
2024/01/13 03:50:10;;;;;;;35.55;21.20;;;;;;;-2.86;59.84;94967.34;4208529;28;20136;-67
2024/01/13 03:52:11;;;;;;;36.90;19.58;;;;;;;-3.08;60.36;94962.38;4206959;28;20052;-64
2024/01/13 03:54:13;;;;;;;35.13;20.25;;;;;;;-3.00;60.83;94954.34;4206578;28;20062;-69
2024/01/13 03:56:15;;;;;;;32.08;20.42;;;;;;;-3.14;60.41;94954.97;4203414;28;20121;-66
2024/01/13 03:58:17;;;;;;;37.20;21.70;;;;;;;-3.23;60.49;94963.91;4206127;28;20110;-67
2024/01/13 04:00:19;;;;;;;33.92;21.13;;;;;;;-3.47;61.33;94970.97;4202106;28;20052;-65
2024/01/13 04:02:25;;;;;;;36.42;20.98;;;;;;;-3.50;62.19;94971.94;4205655;28;20059;-66
2024/01/13 04:04:26;;;;;;;36.47;20.65;;;;;;;-3.43;61.48;94963.97;4207045;28;20498;-66
2024/01/13 04:06:29;;;;;;;35.22;20.92;;;;;;;-3.40;61.11;94957.00;4203280;28;20070;-67
2024/01/13 04:08:32;;;;;;;37.25;21.70;;;;;;;-3.32;61.08;94957.47;4201220;28;20103;-66
2024/01/13 04:10:34;;;;;;;36.67;20.35;;;;;;;-3.11;61.03;94960.78;4209562;28;20044;-65
2024/01/13 04:12:36;;;;;;;33.55;21.83;;;;;;;-2.99;60.57;94953.41;4195971;28;20052;-65
2024/01/13 04:14:38;;;;;;;33.00;20.20;;;;;;;-2.99;60.10;94961.13;4194637;28;20123;-65
2024/01/13 04:16:40;;;;;;;37.85;20.60;;;;;;;-2.86;60.08;94957.09;4203569;28;20047;-65
2024/01/13 04:18:41;;;;;;;35.75;22.20;;;;;;;-2.92;59.87;94962.50;4208991;28;20074;-66
2024/01/13 04:20:43;;;;;;;35.80;21.80;;;;;;;-2.96;59.84;94961.81;4206164;28;20046;-68
2024/01/13 04:22:45;;;;;;;36.50;22.13;;;;;;;-2.96;59.95;94969.50;4208084;28;20058;-67
2024/01/13 04:24:47;;;;;;;34.00;20.80;;;;;;;-2.95;59.57;94973.72;4207811;28;20102;-65
2024/01/13 04:26:49;;;;;;;38.28;22.13;;;;;;;-2.84;59.15;94977.53;4194492;28;20488;-66
2024/01/13 04:28:51;;;;;;;34.90;21.15;;;;;;;-2.77;59.31;94977.16;4196858;28;20055;-70
2024/01/13 04:30:53;;;;;;;34.42;20.63;;;;;;;-3.02;58.78;94986.91;4194889;28;20142;-65
2024/01/13 04:32:55;;;;;;;34.75;21.33;;;;;;;-2.93;59.22;94997.53;4193008;28;20120;-66
2024/01/13 04:34:56;;;;;;;33.88;20.63;;;;;;;-2.79;58.31;94990.97;4192858;28;20048;-68
2024/01/13 04:37:00;;;;;;;34.45;19.63;;;;;;;-2.69;57.79;94989.63;4197456;28;20500;-66
2024/01/13 04:39:03;;;;;;;;;;;;;;;-2.75;57.42;94988.19;4197364;28;20136;-65
2024/01/13 04:41:05;;;;;;;32.35;19.25;;;;;;;-3.02;57.56;94997.97;4196912;28;20085;-68
2024/01/13 04:43:07;;;;;;;31.80;17.88;;;;;;;-3.05;57.68;94997.28;4200527;28;20544;-65
2024/01/13 04:45:09;;;;;;;29.00;18.05;;;;;;;-2.92;57.40;94993.28;4197394;28;20070;-67
2024/01/13 04:47:11;;;;;;;33.30;18.67;;;;;;;-2.76;56.90;95001.06;4207065;28;20093;-68
2024/01/13 04:49:13;;;;;;;29.70;17.55;;;;;;;-2.63;56.54;95009.03;4201632;28;20147;-66
2024/01/13 04:51:16;;;;;;;33.58;17.50;;;;;;;-2.63;56.78;95003.91;4195529;28;20369;-66
2024/01/13 04:53:18;;;;;;;28.10;17.70;;;;;;;-2.59;56.38;95001.13;4196279;28;20489;-66
2024/01/13 04:55:20;;;;;;;28.73;18.17;;;;;;;-2.53;55.85;95000.81;4200558;28;20051;-66
2024/01/13 04:57:22;;;;;;;32.40;18.13;;;;;;;-2.60;56.29;95009.72;4205340;28;20490;-65
2024/01/13 04:59:24;;;;;;;28.42;16.85;;;;;;;-2.64;55.75;95007.38;4205794;28;20422;-68
2024/01/13 05:01:26;;;;;;;27.48;16.58;;;;;;;-2.84;56.35;94992.91;4199382;28;20044;-66
2024/01/13 05:03:28;;;;;;;27.95;17.02;;;;;;;-2.86;56.54;95002.41;4197611;28;20052;-68
2024/01/13 05:05:30;;;;;;;27.05;17.00;;;;;;;-2.90;56.14;95006.84;4208809;28;20146;-67
2024/01/13 05:07:32;;;;;;;27.08;16.58;;;;;;;-2.76;56.51;95007.03;4207205;28;20044;-68
2024/01/13 05:09:34;;;;;;;24.35;16.42;;;;;;;-2.62;56.53;95000.44;4197957;28;20040;-66
2024/01/13 05:11:36;;;;;;;29.30;17.55;;;;;;;-2.69;55.72;94995.59;4208452;28;20051;-66
2024/01/13 05:13:38;;;;;;;28.02;16.90;;;;;;;-2.66;56.43;94986.09;4198123;28;20210;-67
2024/01/13 05:15:40;;;;;;;28.38;16.23;;;;;;;-2.62;55.77;94990.19;4207026;28;20130;-65
2024/01/13 05:17:41;;;;;;;27.50;16.65;;;;;;;-2.61;55.58;94976.44;4204724;28;20508;-66
2024/01/13 05:19:43;;;;;;;26.17;16.35;;;;;;;-2.45;55.54;94981.66;4199531;28;20139;-66
2024/01/13 05:21:45;;;;;;;26.00;15.70;;;;;;;-2.40;55.27;94977.97;4197820;28;20070;-66
2024/01/13 05:23:47;;;;;;;27.02;17.05;;;;;;;-2.44;55.02;94962.81;4193532;28;20407;-67
2024/01/13 05:25:49;;;;;;;30.48;17.17;;;;;;;-2.38;55.18;94955.66;4202708;28;20076;-67
2024/01/13 05:27:51;;;;;;;28.40;17.02;;;;;;;-2.38;55.23;94958.22;4200418;28;20044;-68
2024/01/13 05:29:53;;;;;;;26.60;16.25;;;;;;;-2.55;55.32;94953.06;4196896;28;20044;-67
2024/01/13 05:31:54;;;;;;;25.58;15.93;;;;;;;-2.60;55.04;94961.00;4202974;28;20451;-67
2024/01/13 05:33:56;;;;;;;27.98;16.90;;;;;;;-2.73;56.08;94947.06;4203961;28;20370;-67
2024/01/13 05:35:58;;;;;;;29.23;16.52;;;;;;;-2.67;55.83;94957.03;4197836;28;20493;-68
2024/01/13 05:38:00;;;;;;;25.58;16.35;;;;;;;-2.64;56.11;94959.47;4205562;28;20159;-66
2024/01/13 05:40:05;;;;;;;29.95;16.88;;;;;;;-2.69;55.92;94958.84;4197820;28;20072;-67
2024/01/13 05:42:08;;;;;;;28.05;17.02;;;;;;;-2.75;55.71;94957.41;4205264;28;20109;-65
2024/01/13 05:44:11;;;;;;;29.45;16.55;;;;;;;-2.69;55.40;94958.84;4205734;28;20040;-67
2024/01/13 05:46:13;;;;;;;28.63;16.27;;;;;;;-2.70;56.19;94972.59;4206649;28;20139;-67
2024/01/13 05:48:15;;;;;;;30.27;17.05;;;;;;;-2.70;56.17;94975.16;4208275;28;20753;-67
2024/01/13 05:50:18;;;;;;;26.20;16.48;;;;;;;-2.69;55.47;94982.78;4195076;28;20076;-68
2024/01/13 05:52:20;;;;;;;29.73;17.05;;;;;;;-2.67;56.04;94977.56;4200148;28;20156;-66
2024/01/13 05:54:22;;;;;;;27.70;16.40;;;;;;;-2.67;55.96;94977.56;4199622;28;20048;-68
2024/01/13 05:56:23;;;;;;;27.00;15.82;;;;;;;-2.67;55.69;94980.13;4203410;28;20048;-69
2024/01/13 05:58:25;;;;;;;26.20;15.73;;;;;;;-2.66;55.98;94989.50;4196763;28;20111;-69
2024/01/13 06:00:27;;;;;;;24.80;15.68;;;;;;;-2.76;56.02;94990.81;4206806;28;20565;-67
2024/01/13 06:02:29;;;;;;;26.10;15.88;;;;;;;-2.80;56.23;94984.16;4196592;28;20084;-67
2024/01/13 06:04:31;;;;;;;29.58;16.13;;;;;;;-2.80;56.64;94986.72;4193766;28;20049;-67
2024/01/13 06:06:33;;;;;;;30.00;17.13;;;;;;;-2.85;56.08;94986.13;4207171;28;20437;-67
2024/01/13 06:08:35;;;;;;;29.55;16.23;;;;;;;-2.81;56.12;94979.97;4205383;28;20395;-69
2024/01/13 06:10:37;;;;;;;24.60;15.80;;;;;;;-2.69;56.05;94979.34;4204664;28;20048;-68
2024/01/13 06:12:38;;;;;;;25.58;16.23;;;;;;;-2.70;56.05;94977.72;4203944;28;20443;-68
2024/01/13 06:14:41;;;;;;;24.50;14.20;;;;;;;-2.86;55.99;94976.75;4201949;28;20102;-68
2024/01/13 06:16:43;;;;;;;27.25;17.20;;;;;;;-2.97;56.68;94972.97;4204200;28;20176;-68
2024/01/13 06:18:45;;;;;;;28.75;16.63;;;;;;;-2.84;56.60;94980.91;4209711;28;20067;-68
2024/01/13 06:20:47;;;;;;;28.33;16.88;;;;;;;-2.77;56.12;94984.88;4200573;28;20051;-68
2024/01/13 06:22:49;;;;;;;26.77;16.48;;;;;;;-2.69;55.80;94987.91;4210978;28;20048;-66
2024/01/13 06:24:51;;;;;;;26.67;15.82;;;;;;;-2.60;56.50;94984.06;4208809;28;20048;-68
2024/01/13 06:26:53;;;;;;;29.88;16.67;;;;;;;-2.52;56.04;94986.25;4209451;28;20048;-68
2024/01/13 06:28:55;;;;;;;25.35;16.45;;;;;;;-2.62;56.13;94983.31;4201776;28;20048;-68
2024/01/13 06:30:56;;;;;;;26.50;16.88;;;;;;;-2.66;56.15;94978.41;4201757;28;20122;-67
2024/01/13 06:32:59;;;;;;;34.78;16.42;;;;;;;-2.53;55.77;94970.03;4205111;28;20463;-69
2024/01/13 06:35:01;;;;;;;29.15;16.30;;;;;;;-2.34;55.39;94966.59;4201934;28;20040;-66
2024/01/13 06:37:03;;;;;;;27.67;16.55;;;;;;;-2.58;55.55;94969.44;4211411;28;20089;-67
2024/01/13 06:39:05;;;;;;;26.75;16.30;;;;;;;-2.47;55.88;94974.88;4197184;28;20204;-68
2024/01/13 06:41:07;;;;;;;26.45;15.50;;;;;;;-2.39;55.39;94973.66;4206973;28;20135;-66
2024/01/13 06:43:10;;;;;;;24.73;16.23;;;;;;;-2.46;55.53;94965.44;4196822;28;20427;-66
2024/01/13 06:45:13;;;;;;;;;;;;;;;-2.53;55.48;94962.34;4206704;28;20051;-66
2024/01/13 06:47:15;;;;;;;28.67;16.17;;;;;;;-2.55;55.83;94978.72;4211217;28;19958;-67
2024/01/13 06:49:16;;;;;;;22.83;14.73;;;;;;;-2.57;56.10;94980.53;4206805;28;20052;-69
2024/01/13 06:51:19;;;;;;;27.10;16.00;;;;;;;-2.52;55.88;94992.25;4204854;28;20064;-68
2024/01/13 06:53:20;;;;;;;27.45;16.75;;;;;;;-2.44;55.09;94996.16;4202848;28;20083;-66
2024/01/13 06:55:23;;;;;;;27.75;16.58;;;;;;;-2.42;55.75;94992.63;4209422;28;20048;-67
2024/01/13 06:57:25;;;;;;;26.50;15.82;;;;;;;-2.47;55.76;94997.97;4209784;28;20043;-67
2024/01/13 06:59:27;;;;;;;26.58;15.20;;;;;;;-2.49;55.33;94999.78;4207840;28;20444;-67
2024/01/13 07:01:28;;;;;;;27.05;15.85;;;;;;;-2.39;55.39;95002.72;4204980;28;20144;-65
2024/01/13 07:03:30;;;;;;;24.20;16.08;;;;;;;-2.42;55.46;95002.06;4202081;28;20048;-68
2024/01/13 07:05:32;;;;;;;26.67;16.67;;;;;;;-2.47;55.34;95000.53;4207518;28;20101;-71
2024/01/13 07:07:34;;;;;;;27.38;15.82;;;;;;;-2.35;55.57;95011.94;4207356;28;20413;-65
2024/01/13 07:09:37;;;;;;;25.55;16.00;;;;;;;-2.33;55.48;95010.13;4198319;28;20383;-68
2024/01/13 07:11:38;;;;;;;28.95;16.50;;;;;;;-2.39;55.25;95019.84;4198595;28;20044;-65
2024/01/13 07:13:44;;;;;;;29.23;16.08;;;;;;;-2.38;55.93;95019.78;4200593;28;20100;-69
2024/01/13 07:15:46;;;;;;;30.15;17.20;;;;;;;-2.32;56.04;95010.97;4199885;28;20060;-67
2024/01/13 07:17:48;;;;;;;29.85;18.13;;;;;;;-2.32;55.82;95016.13;4202360;28;20071;-69
2024/01/13 07:19:49;;;;;;;28.67;17.42;;;;;;;-2.36;55.84;95033.38;4198006;28;20055;-65
2024/01/13 07:21:52;;;;;;;29.90;17.35;;;;;;;-2.25;55.67;95017.47;4204275;28;20384;-68
2024/01/13 07:23:54;;;;;;;30.05;18.35;;;;;;;-2.26;55.34;95018.34;4206635;28;20576;-68
2024/01/13 07:25:56;;;;;;;30.48;18.05;;;;;;;-2.14;55.81;95022.91;4204030;28;20351;-68
2024/01/13 07:27:58;;;;;;;27.60;17.98;;;;;;;-2.08;55.45;95030.31;4195958;28;20425;-67
2024/01/13 07:30:00;;;;;;;28.58;18.33;;;;;;;-2.08;55.48;95022.59;4208724;28;20116;-69
2024/01/13 07:32:03;;;;;;;30.75;18.88;;;;;;;-2.18;55.48;95026.53;4200835;28;20045;-70
2024/01/13 07:34:05;;;;;;;31.23;19.45;;;;;;;-2.17;56.31;95035.03;4197009;28;20123;-67
2024/01/13 07:36:10;;;;;;;30.25;18.65;;;;;;;-2.19;55.41;95032.56;4202882;28;20052;-67
2024/01/13 07:38:13;;;;;;;31.35;18.23;;;;;;;-2.24;55.64;95026.81;4201527;28;20107;-68
2024/01/13 07:40:17;;;;;;;30.98;19.17;;;;;;;-2.32;56.51;95031.50;4198489;28;20056;-68
2024/01/13 07:42:19;;;;;;;;;;;;;;;-2.33;56.15;95022.97;4198693;28;20062;-67
2024/01/13 07:44:21;;;;;;;29.35;17.77;;;;;;;-2.31;56.36;95031.41;4203153;28;20404;-65
2024/01/13 07:46:23;;;;;;;29.27;17.80;;;;;;;-2.27;56.67;95026.97;4208438;28;20048;-67
2024/01/13 07:48:25;;;;;;;31.92;18.55;;;;;;;-2.32;57.52;95018.69;4206725;28;20566;-70
2024/01/13 07:50:27;;;;;;;29.13;18.65;;;;;;;-2.22;56.47;95025.00;4194511;28;20082;-68
2024/01/13 07:52:29;;;;;;;29.05;18.42;;;;;;;-2.18;56.69;95031.66;4206944;28;20055;-68
2024/01/13 07:54:33;;;;;;;32.58;19.02;;;;;;;-2.12;56.82;95020.28;4206893;28;20136;-69
2024/01/13 07:56:35;;;;;;;32.58;18.20;;;;;;;-2.16;56.92;95024.72;4210058;28;20048;-67
2024/01/13 07:58:37;;;;;;;30.58;18.50;;;;;;;-1.98;56.66;95020.44;4197634;28;20512;-70
2024/01/13 08:00:39;;;;;;;29.23;17.73;;;;;;;-2.02;57.00;95028.34;4202832;28;20040;-68
2024/01/13 08:02:41;;;;;;;33.15;19.92;;;;;;;-2.01;56.53;95022.31;4193916;28;20402;-68
2024/01/13 08:04:43;;;;;;;28.85;17.83;;;;;;;-2.07;56.80;95026.81;4206994;28;20172;-68
2024/01/13 08:06:45;;;;;;;28.08;18.30;;;;;;;-2.02;56.43;95015.50;4208093;28;20055;-68
2024/01/13 08:08:47;;;;;;;28.85;18.02;;;;;;;-1.91;56.16;95018.41;4206495;28;20063;-68
2024/01/13 08:10:49;;;;;;;26.85;17.42;;;;;;;-1.81;55.97;95017.00;4200387;28;20072;-66
2024/01/13 08:12:52;;;;;;;28.65;16.08;;;;;;;-1.55;55.65;95009.72;4199017;28;20063;-67
2024/01/13 08:14:54;;;;;;;25.83;15.98;;;;;;;-1.46;54.87;95016.97;4199677;28;20123;-66
2024/01/13 08:16:55;;;;;;;26.70;16.80;;;;;;;-1.55;54.40;95020.84;4201913;28;20055;-66
2024/01/13 08:19:00;;;;;;;26.13;15.90;;;;;;;-1.42;54.32;95015.88;4205495;28;20508;-66
2024/01/13 08:21:02;;;;;;;29.20;16.33;;;;;;;-1.47;54.71;95013.56;4208735;28;20056;-68
2024/01/13 08:23:04;;;;;;;27.35;16.58;;;;;;;-1.33;54.79;95015.44;4196567;28;20099;-68
2024/01/13 08:25:07;;;;;;;21.92;14.82;;;;;;;-1.52;54.41;95014.72;4198811;28;20455;-70
2024/01/13 08:27:08;;;;;;;23.55;15.05;;;;;;;-1.55;55.13;95015.72;4209288;28;20506;-68
2024/01/13 08:29:10;;;;;;;20.13;13.75;;;;;;;-1.67;54.96;95017.16;4208991;28;20086;-68
2024/01/13 08:31:12;;;;;;;21.70;14.18;;;;;;;-1.74;55.46;95026.09;4194865;28;20389;-68
2024/01/13 08:33:30;;;;;;;23.27;14.55;;;;;;;-1.56;55.16;95028.63;4201684;28;20079;-67
2024/01/13 08:35:32;;;;;;;21.58;14.85;;;;;;;-1.29;54.83;95013.53;4201693;28;20367;-68
2024/01/13 08:37:33;;;;;;;26.65;16.27;;;;;;;-1.22;54.48;95007.16;4198449;28;20059;-66
2024/01/13 08:39:37;;;;;;;19.05;12.77;;;;;;;-1.35;54.42;95009.53;4206459;28;20055;-67
2024/01/13 08:41:39;;;;;;;20.75;12.93;;;;;;;-1.32;53.50;94996.53;4209290;28;20508;-68
2024/01/13 08:43:41;;;;;;;20.02;13.15;;;;;;;-1.14;53.56;95002.47;4206485;28;20047;-67
2024/01/13 08:45:42;;;;;;;21.13;13.85;;;;;;;-1.18;54.00;94998.38;4200044;28;20125;-68
2024/01/13 08:47:44;;;;;;;18.58;13.18;;;;;;;-1.26;53.50;95003.91;4196276;28;20153;-69
2024/01/13 08:49:46;;;;;;;20.10;12.75;;;;;;;-1.17;53.71;94988.94;4199684;28;20479;-66
2024/01/13 08:51:48;;;;;;;21.75;13.95;;;;;;;-1.18;53.42;94998.38;4202021;28;20705;-68
2024/01/13 08:53:50;;;;;;;20.17;12.65;;;;;;;-1.14;53.40;94988.75;4202290;28;20049;-68
2024/01/13 08:55:52;;;;;;;19.40;13.13;;;;;;;-1.17;53.13;94983.78;4197813;28;20106;-67
2024/01/13 08:57:54;;;;;;;19.70;12.55;;;;;;;-1.25;53.50;94971.31;4199929;28;20143;-68
2024/01/13 08:59:55;;;;;;;20.20;13.35;;;;;;;-1.24;53.68;94975.56;4197399;28;20053;-68
2024/01/13 09:01:57;;;;;;;17.42;12.30;;;;;;;-1.09;53.39;94961.06;4196428;28;20091;-66
2024/01/13 09:03:59;;;;;;;19.67;12.57;;;;;;;-1.13;53.69;94962.16;4204546;28;20055;-66
2024/01/13 09:06:01;;;;;;;24.00;14.10;;;;;;;-1.09;53.14;94979.91;4206016;28;20391;-68
2024/01/13 09:08:03;;;;;;;18.90;12.68;;;;;;;-0.97;53.07;94978.38;4208358;28;20710;-67
2024/01/13 09:10:06;;;;;;;19.45;11.98;;;;;;;-0.88;52.60;94964.22;4209239;28;20047;-68
2024/01/13 09:12:08;;;;;;;19.73;12.98;;;;;;;-0.86;52.32;94947.81;4201720;28;20045;-67
2024/01/13 09:14:11;;;;;;;18.67;12.25;;;;;;;-0.87;52.57;94956.41;4205931;28;20611;-67
2024/01/13 09:16:15;;;;;;;17.33;12.00;;;;;;;-0.62;52.11;94961.06;4199992;28;20117;-68
2024/01/13 09:18:17;;;;;;;20.00;12.70;;;;;;;-0.55;52.31;94953.00;4202379;28;20052;-68
2024/01/13 09:20:19;;;;;;;19.50;12.52;;;;;;;-0.73;52.25;94941.97;4201099;28;20109;-68
2024/01/13 09:22:21;;;;;;;20.63;12.15;;;;;;;-0.75;52.69;94943.78;4204373;28;20044;-68
2024/01/13 09:24:23;;;;;;;19.15;12.88;;;;;;;-0.60;52.46;94948.09;4199986;28;20064;-68